sensor_id;sensor_type;location;lat;lon;timestamp;P1;durP1;ratioP1;P2;durP2;ratioP2
10847;SDS011;5477;48.806;9.154;2022-12-18T00:02:04;31.10;;;17.50;;
10847;SDS011;5477;48.806;9.154;2022-12-18T00:04:32;32.00;;;17.10;;
10847;SDS011;5477;48.806;9.154;2022-12-18T00:07:00;30.97;;;15.83;;
10847;SDS011;5477;48.806;9.154;2022-12-18T00:09:29;24.77;;;14.67;;
10847;SDS011;5477;48.806;9.154;2022-12-18T00:12:05;25.33;;;13.87;;
10847;SDS011;5477;48.806;9.154;2022-12-18T00:14:44;28.87;;;14.47;;
10847;SDS011;5477;48.806;9.154;2022-12-18T00:17:13;27.43;;;14.80;;
10847;SDS011;5477;48.806;9.154;2022-12-18T00:19:41;28.87;;;14.67;;
10847;SDS011;5477;48.806;9.154;2022-12-18T00:22:09;27.10;;;14.07;;
10847;SDS011;5477;48.806;9.154;2022-12-18T00:24:37;24.60;;;13.33;;
10847;SDS011;5477;48.806;9.154;2022-12-18T00:27:05;27.17;;;14.90;;
10847;SDS011;5477;48.806;9.154;2022-12-18T00:29:32;26.07;;;14.40;;
10847;SDS011;5477;48.806;9.154;2022-12-18T00:32:00;28.77;;;14.90;;
10847;SDS011;5477;48.806;9.154;2022-12-18T00:34:30;25.13;;;14.93;;
10847;SDS011;5477;48.806;9.154;2022-12-18T00:36:58;25.77;;;13.67;;
10847;SDS011;5477;48.806;9.154;2022-12-18T00:39:26;27.40;;;15.03;;
10847;SDS011;5477;48.806;9.154;2022-12-18T00:41:53;25.97;;;14.90;;
10847;SDS011;5477;48.806;9.154;2022-12-18T00:44:39;27.63;;;14.00;;
10847;SDS011;5477;48.806;9.154;2022-12-18T00:47:07;25.83;;;14.40;;
10847;SDS011;5477;48.806;9.154;2022-12-18T00:49:36;26.50;;;14.53;;
10847;SDS011;5477;48.806;9.154;2022-12-18T00:52:04;26.30;;;15.13;;
10847;SDS011;5477;48.806;9.154;2022-12-18T00:54:32;29.63;;;15.37;;
10847;SDS011;5477;48.806;9.154;2022-12-18T00:57:00;24.97;;;14.03;;
10847;SDS011;5477;48.806;9.154;2022-12-18T00:59:28;25.43;;;14.10;;
10847;SDS011;5477;48.806;9.154;2022-12-18T01:01:57;25.50;;;13.90;;
10847;SDS011;5477;48.806;9.154;2022-12-18T01:04:26;28.67;;;14.90;;
10847;SDS011;5477;48.806;9.154;2022-12-18T01:06:55;29.00;;;15.80;;
10847;SDS011;5477;48.806;9.154;2022-12-18T01:09:23;28.93;;;14.20;;
10847;SDS011;5477;48.806;9.154;2022-12-18T01:11:52;26.30;;;14.33;;
10847;SDS011;5477;48.806;9.154;2022-12-18T01:14:20;25.77;;;14.50;;
10847;SDS011;5477;48.806;9.154;2022-12-18T01:16:48;28.40;;;15.47;;
10847;SDS011;5477;48.806;9.154;2022-12-18T01:19:16;25.87;;;14.03;;
10847;SDS011;5477;48.806;9.154;2022-12-18T01:21:45;31.30;;;15.93;;
10847;SDS011;5477;48.806;9.154;2022-12-18T01:24:14;27.40;;;14.23;;
10847;SDS011;5477;48.806;9.154;2022-12-18T01:26:43;25.93;;;14.83;;
10847;SDS011;5477;48.806;9.154;2022-12-18T01:29:13;26.67;;;14.63;;
10847;SDS011;5477;48.806;9.154;2022-12-18T01:31:41;26.83;;;15.30;;
10847;SDS011;5477;48.806;9.154;2022-12-18T01:34:09;25.57;;;13.93;;
10847;SDS011;5477;48.806;9.154;2022-12-18T01:36:39;28.33;;;15.87;;
10847;SDS011;5477;48.806;9.154;2022-12-18T01:39:08;24.93;;;14.17;;
10847;SDS011;5477;48.806;9.154;2022-12-18T01:41:42;29.13;;;14.73;;
10847;SDS011;5477;48.806;9.154;2022-12-18T01:47:22;26.00;;;14.80;;
10847;SDS011;5477;48.806;9.154;2022-12-18T01:49:53;24.27;;;14.10;;
10847;SDS011;5477;48.806;9.154;2022-12-18T01:52:23;25.33;;;14.23;;
10847;SDS011;5477;48.806;9.154;2022-12-18T01:54:53;23.23;;;13.87;;
10847;SDS011;5477;48.806;9.154;2022-12-18T01:57:26;25.43;;;12.83;;
10847;SDS011;5477;48.806;9.154;2022-12-18T02:02:46;29.00;;;13.77;;
10847;SDS011;5477;48.806;9.154;2022-12-18T02:05:15;28.03;;;14.93;;
10847;SDS011;5477;48.806;9.154;2022-12-18T02:07:48;27.77;;;14.83;;
10847;SDS011;5477;48.806;9.154;2022-12-18T02:10:24;27.60;;;14.47;;
10847;SDS011;5477;48.806;9.154;2022-12-18T02:13:02;25.03;;;14.07;;
10847;SDS011;5477;48.806;9.154;2022-12-18T02:15:38;27.23;;;14.57;;
10847;SDS011;5477;48.806;9.154;2022-12-18T02:18:11;25.00;;;14.87;;
10847;SDS011;5477;48.806;9.154;2022-12-18T02:20:47;29.93;;;14.47;;
10847;SDS011;5477;48.806;9.154;2022-12-18T02:23:24;27.13;;;14.47;;
10847;SDS011;5477;48.806;9.154;2022-12-18T02:26:11;26.93;;;14.70;;
10847;SDS011;5477;48.806;9.154;2022-12-18T02:28:51;29.97;;;15.27;;
10847;SDS011;5477;48.806;9.154;2022-12-18T02:31:24;27.70;;;15.37;;
10847;SDS011;5477;48.806;9.154;2022-12-18T02:33:55;23.17;;;13.77;;
10847;SDS011;5477;48.806;9.154;2022-12-18T02:36:26;28.40;;;15.80;;
10847;SDS011;5477;48.806;9.154;2022-12-18T02:38:56;25.60;;;14.60;;
10847;SDS011;5477;48.806;9.154;2022-12-18T02:41:27;25.57;;;14.73;;
10847;SDS011;5477;48.806;9.154;2022-12-18T02:43:57;31.70;;;16.03;;
10847;SDS011;5477;48.806;9.154;2022-12-18T02:46:31;27.00;;;14.40;;
10847;SDS011;5477;48.806;9.154;2022-12-18T02:49:12;25.67;;;14.63;;
10847;SDS011;5477;48.806;9.154;2022-12-18T02:51:50;25.43;;;13.67;;
10847;SDS011;5477;48.806;9.154;2022-12-18T02:57:27;25.30;;;15.63;;
10847;SDS011;5477;48.806;9.154;2022-12-18T03:00:03;26.73;;;14.07;;
10847;SDS011;5477;48.806;9.154;2022-12-18T03:02:37;26.17;;;14.30;;
10847;SDS011;5477;48.806;9.154;2022-12-18T03:05:13;24.97;;;14.03;;
10847;SDS011;5477;48.806;9.154;2022-12-18T03:07:46;27.13;;;14.23;;
10847;SDS011;5477;48.806;9.154;2022-12-18T03:10:19;25.50;;;14.80;;
10847;SDS011;5477;48.806;9.154;2022-12-18T03:12:54;30.80;;;15.90;;
10847;SDS011;5477;48.806;9.154;2022-12-18T03:15:28;28.57;;;15.17;;
10847;SDS011;5477;48.806;9.154;2022-12-18T03:18:06;31.07;;;16.00;;
10847;SDS011;5477;48.806;9.154;2022-12-18T03:20:37;29.37;;;15.87;;
10847;SDS011;5477;48.806;9.154;2022-12-18T03:23:09;28.70;;;16.47;;
10847;SDS011;5477;48.806;9.154;2022-12-18T03:25:39;28.47;;;15.60;;
10847;SDS011;5477;48.806;9.154;2022-12-18T03:28:12;28.20;;;14.67;;
10847;SDS011;5477;48.806;9.154;2022-12-18T03:30:43;24.57;;;14.17;;
10847;SDS011;5477;48.806;9.154;2022-12-18T03:33:15;23.90;;;12.83;;
10847;SDS011;5477;48.806;9.154;2022-12-18T03:35:49;25.30;;;14.00;;
10847;SDS011;5477;48.806;9.154;2022-12-18T03:38:17;24.87;;;14.33;;
10847;SDS011;5477;48.806;9.154;2022-12-18T03:40:52;26.00;;;13.50;;
10847;SDS011;5477;48.806;9.154;2022-12-18T03:43:31;23.90;;;14.13;;
10847;SDS011;5477;48.806;9.154;2022-12-18T03:46:11;25.67;;;14.90;;
10847;SDS011;5477;48.806;9.154;2022-12-18T03:48:43;25.50;;;13.97;;
10847;SDS011;5477;48.806;9.154;2022-12-18T03:51:18;24.30;;;13.90;;
10847;SDS011;5477;48.806;9.154;2022-12-18T03:53:53;24.97;;;13.50;;
10847;SDS011;5477;48.806;9.154;2022-12-18T03:56:32;26.40;;;14.13;;
10847;SDS011;5477;48.806;9.154;2022-12-18T03:59:05;24.03;;;13.60;;
10847;SDS011;5477;48.806;9.154;2022-12-18T04:01:37;26.00;;;13.80;;
10847;SDS011;5477;48.806;9.154;2022-12-18T04:04:10;28.13;;;14.40;;
10847;SDS011;5477;48.806;9.154;2022-12-18T04:06:42;28.87;;;15.60;;
10847;SDS011;5477;48.806;9.154;2022-12-18T04:09:13;26.70;;;14.67;;
10847;SDS011;5477;48.806;9.154;2022-12-18T04:11:45;27.67;;;15.10;;
10847;SDS011;5477;48.806;9.154;2022-12-18T04:14:16;31.67;;;15.23;;
10847;SDS011;5477;48.806;9.154;2022-12-18T04:16:48;28.13;;;15.00;;
10847;SDS011;5477;48.806;9.154;2022-12-18T04:19:20;27.70;;;14.63;;
10847;SDS011;5477;48.806;9.154;2022-12-18T04:21:50;27.27;;;14.20;;
10847;SDS011;5477;48.806;9.154;2022-12-18T04:24:18;28.80;;;14.43;;
10847;SDS011;5477;48.806;9.154;2022-12-18T04:27:01;26.17;;;13.60;;
10847;SDS011;5477;48.806;9.154;2022-12-18T04:29:34;23.40;;;13.17;;
10847;SDS011;5477;48.806;9.154;2022-12-18T04:32:02;26.80;;;14.60;;
10847;SDS011;5477;48.806;9.154;2022-12-18T04:34:31;26.07;;;14.50;;
10847;SDS011;5477;48.806;9.154;2022-12-18T04:36:59;25.57;;;13.70;;
10847;SDS011;5477;48.806;9.154;2022-12-18T04:39:28;27.00;;;14.43;;
10847;SDS011;5477;48.806;9.154;2022-12-18T04:42:01;24.67;;;13.17;;
10847;SDS011;5477;48.806;9.154;2022-12-18T04:44:29;22.33;;;12.20;;
10847;SDS011;5477;48.806;9.154;2022-12-18T04:46:58;22.27;;;13.00;;
10847;SDS011;5477;48.806;9.154;2022-12-18T04:49:26;22.27;;;12.73;;
10847;SDS011;5477;48.806;9.154;2022-12-18T04:51:54;21.07;;;11.10;;
10847;SDS011;5477;48.806;9.154;2022-12-18T04:54:22;19.43;;;12.20;;
10847;SDS011;5477;48.806;9.154;2022-12-18T04:56:50;21.40;;;12.00;;
10847;SDS011;5477;48.806;9.154;2022-12-18T04:59:19;22.33;;;12.60;;
10847;SDS011;5477;48.806;9.154;2022-12-18T05:01:47;21.67;;;11.90;;
10847;SDS011;5477;48.806;9.154;2022-12-18T05:04:16;20.10;;;11.63;;
10847;SDS011;5477;48.806;9.154;2022-12-18T05:06:45;19.40;;;11.63;;
10847;SDS011;5477;48.806;9.154;2022-12-18T05:09:13;18.67;;;11.37;;
10847;SDS011;5477;48.806;9.154;2022-12-18T05:11:42;22.70;;;12.67;;
10847;SDS011;5477;48.806;9.154;2022-12-18T05:14:11;19.10;;;11.67;;
10847;SDS011;5477;48.806;9.154;2022-12-18T05:16:39;21.47;;;11.90;;
10847;SDS011;5477;48.806;9.154;2022-12-18T05:19:07;21.80;;;11.40;;
10847;SDS011;5477;48.806;9.154;2022-12-18T05:21:37;23.53;;;12.87;;
10847;SDS011;5477;48.806;9.154;2022-12-18T05:24:06;24.73;;;11.83;;
10847;SDS011;5477;48.806;9.154;2022-12-18T05:26:34;23.37;;;12.33;;
10847;SDS011;5477;48.806;9.154;2022-12-18T05:29:02;20.53;;;12.07;;
10847;SDS011;5477;48.806;9.154;2022-12-18T05:31:30;22.10;;;12.17;;
10847;SDS011;5477;48.806;9.154;2022-12-18T05:34:05;22.20;;;11.90;;
10847;SDS011;5477;48.806;9.154;2022-12-18T05:36:33;21.87;;;12.17;;
10847;SDS011;5477;48.806;9.154;2022-12-18T05:39:02;24.03;;;12.63;;
10847;SDS011;5477;48.806;9.154;2022-12-18T05:41:31;18.97;;;12.43;;
10847;SDS011;5477;48.806;9.154;2022-12-18T05:43:59;19.43;;;11.10;;
10847;SDS011;5477;48.806;9.154;2022-12-18T05:46:27;23.33;;;11.90;;
10847;SDS011;5477;48.806;9.154;2022-12-18T05:48:58;22.17;;;12.27;;
10847;SDS011;5477;48.806;9.154;2022-12-18T05:51:26;21.57;;;11.93;;
10847;SDS011;5477;48.806;9.154;2022-12-18T05:53:55;22.07;;;12.33;;
10847;SDS011;5477;48.806;9.154;2022-12-18T05:56:24;22.93;;;11.33;;
10847;SDS011;5477;48.806;9.154;2022-12-18T05:58:52;22.77;;;12.60;;
10847;SDS011;5477;48.806;9.154;2022-12-18T06:01:22;20.03;;;11.17;;
10847;SDS011;5477;48.806;9.154;2022-12-18T06:03:52;19.43;;;11.63;;
10847;SDS011;5477;48.806;9.154;2022-12-18T06:06:21;21.00;;;12.63;;
10847;SDS011;5477;48.806;9.154;2022-12-18T06:08:50;18.90;;;11.43;;
10847;SDS011;5477;48.806;9.154;2022-12-18T06:11:19;20.03;;;11.83;;
10847;SDS011;5477;48.806;9.154;2022-12-18T06:13:50;20.20;;;11.93;;
10847;SDS011;5477;48.806;9.154;2022-12-18T06:16:24;22.50;;;11.77;;
10847;SDS011;5477;48.806;9.154;2022-12-18T06:18:53;19.90;;;11.50;;
10847;SDS011;5477;48.806;9.154;2022-12-18T06:21:23;21.63;;;11.80;;
10847;SDS011;5477;48.806;9.154;2022-12-18T06:23:51;20.03;;;11.87;;
10847;SDS011;5477;48.806;9.154;2022-12-18T06:26:19;20.07;;;11.43;;
10847;SDS011;5477;48.806;9.154;2022-12-18T06:28:54;17.27;;;10.80;;
10847;SDS011;5477;48.806;9.154;2022-12-18T06:31:23;23.40;;;11.63;;
10847;SDS011;5477;48.806;9.154;2022-12-18T06:33:52;18.80;;;11.20;;
10847;SDS011;5477;48.806;9.154;2022-12-18T06:36:20;21.80;;;11.87;;
10847;SDS011;5477;48.806;9.154;2022-12-18T06:38:48;19.00;;;10.87;;
10847;SDS011;5477;48.806;9.154;2022-12-18T06:41:17;21.90;;;11.47;;
10847;SDS011;5477;48.806;9.154;2022-12-18T06:43:46;20.27;;;11.57;;
10847;SDS011;5477;48.806;9.154;2022-12-18T06:46:15;16.70;;;10.67;;
10847;SDS011;5477;48.806;9.154;2022-12-18T06:48:46;21.40;;;11.33;;
10847;SDS011;5477;48.806;9.154;2022-12-18T06:51:15;18.70;;;11.43;;
10847;SDS011;5477;48.806;9.154;2022-12-18T06:53:46;21.00;;;10.80;;
10847;SDS011;5477;48.806;9.154;2022-12-18T06:56:15;19.90;;;11.30;;
10847;SDS011;5477;48.806;9.154;2022-12-18T06:58:43;19.73;;;11.53;;
10847;SDS011;5477;48.806;9.154;2022-12-18T07:01:11;17.97;;;10.93;;
10847;SDS011;5477;48.806;9.154;2022-12-18T07:03:42;18.20;;;10.40;;
10847;SDS011;5477;48.806;9.154;2022-12-18T07:06:14;18.27;;;10.57;;
10847;SDS011;5477;48.806;9.154;2022-12-18T07:08:43;20.10;;;11.37;;
10847;SDS011;5477;48.806;9.154;2022-12-18T07:11:12;19.47;;;10.70;;
10847;SDS011;5477;48.806;9.154;2022-12-18T07:13:40;22.47;;;10.90;;
10847;SDS011;5477;48.806;9.154;2022-12-18T07:16:09;24.23;;;12.57;;
10847;SDS011;5477;48.806;9.154;2022-12-18T07:18:47;18.67;;;10.67;;
10847;SDS011;5477;48.806;9.154;2022-12-18T07:21:16;20.87;;;11.23;;
10847;SDS011;5477;48.806;9.154;2022-12-18T07:23:45;20.80;;;11.87;;
10847;SDS011;5477;48.806;9.154;2022-12-18T07:26:15;19.97;;;11.40;;
10847;SDS011;5477;48.806;9.154;2022-12-18T07:28:45;19.57;;;10.67;;
10847;SDS011;5477;48.806;9.154;2022-12-18T07:31:14;19.53;;;10.87;;
10847;SDS011;5477;48.806;9.154;2022-12-18T07:33:44;20.37;;;11.17;;
10847;SDS011;5477;48.806;9.154;2022-12-18T07:36:14;20.57;;;11.97;;
10847;SDS011;5477;48.806;9.154;2022-12-18T07:38:42;19.67;;;11.53;;
10847;SDS011;5477;48.806;9.154;2022-12-18T07:41:11;24.73;;;11.60;;
10847;SDS011;5477;48.806;9.154;2022-12-18T07:43:40;22.37;;;13.40;;
10847;SDS011;5477;48.806;9.154;2022-12-18T07:46:10;20.77;;;11.80;;
10847;SDS011;5477;48.806;9.154;2022-12-18T07:48:40;19.80;;;11.40;;
10847;SDS011;5477;48.806;9.154;2022-12-18T07:51:09;20.60;;;11.20;;
10847;SDS011;5477;48.806;9.154;2022-12-18T07:53:41;18.47;;;11.10;;
10847;SDS011;5477;48.806;9.154;2022-12-18T07:56:10;18.60;;;10.93;;
10847;SDS011;5477;48.806;9.154;2022-12-18T07:58:56;17.73;;;10.43;;
10847;SDS011;5477;48.806;9.154;2022-12-18T08:01:26;21.10;;;11.40;;
10847;SDS011;5477;48.806;9.154;2022-12-18T08:03:54;21.10;;;11.07;;
10847;SDS011;5477;48.806;9.154;2022-12-18T08:06:22;18.47;;;11.13;;
10847;SDS011;5477;48.806;9.154;2022-12-18T08:08:52;17.33;;;10.17;;
10847;SDS011;5477;48.806;9.154;2022-12-18T08:11:20;19.10;;;11.03;;
10847;SDS011;5477;48.806;9.154;2022-12-18T08:13:49;17.50;;;10.17;;
10847;SDS011;5477;48.806;9.154;2022-12-18T08:16:17;19.03;;;10.80;;
10847;SDS011;5477;48.806;9.154;2022-12-18T08:18:46;18.83;;;10.90;;
10847;SDS011;5477;48.806;9.154;2022-12-18T08:21:16;18.93;;;11.13;;
10847;SDS011;5477;48.806;9.154;2022-12-18T08:23:47;22.03;;;11.47;;
10847;SDS011;5477;48.806;9.154;2022-12-18T08:26:18;20.53;;;11.00;;
10847;SDS011;5477;48.806;9.154;2022-12-18T08:28:47;24.20;;;11.77;;
10847;SDS011;5477;48.806;9.154;2022-12-18T08:31:16;20.33;;;11.17;;
10847;SDS011;5477;48.806;9.154;2022-12-18T08:33:44;22.37;;;12.27;;
10847;SDS011;5477;48.806;9.154;2022-12-18T08:36:12;16.70;;;10.60;;
10847;SDS011;5477;48.806;9.154;2022-12-18T08:38:40;19.60;;;11.30;;
10847;SDS011;5477;48.806;9.154;2022-12-18T08:41:08;20.33;;;13.00;;
10847;SDS011;5477;48.806;9.154;2022-12-18T08:43:39;28.60;;;15.33;;
10847;SDS011;5477;48.806;9.154;2022-12-18T08:46:25;24.83;;;13.77;;
10847;SDS011;5477;48.806;9.154;2022-12-18T08:48:55;24.33;;;14.90;;
10847;SDS011;5477;48.806;9.154;2022-12-18T08:51:22;27.07;;;14.77;;
10847;SDS011;5477;48.806;9.154;2022-12-18T08:53:50;31.10;;;15.83;;
10847;SDS011;5477;48.806;9.154;2022-12-18T08:56:18;28.30;;;15.47;;
10847;SDS011;5477;48.806;9.154;2022-12-18T08:58:50;26.93;;;15.37;;
10847;SDS011;5477;48.806;9.154;2022-12-18T09:01:19;98.63;;;47.83;;
10847;SDS011;5477;48.806;9.154;2022-12-18T09:03:47;57.27;;;31.07;;
10847;SDS011;5477;48.806;9.154;2022-12-18T09:06:16;57.17;;;35.20;;
10847;SDS011;5477;48.806;9.154;2022-12-18T09:08:45;62.83;;;45.23;;
10847;SDS011;5477;48.806;9.154;2022-12-18T09:11:14;58.30;;;37.77;;
10847;SDS011;5477;48.806;9.154;2022-12-18T09:13:45;34.73;;;23.10;;
10847;SDS011;5477;48.806;9.154;2022-12-18T09:16:15;30.73;;;19.47;;
10847;SDS011;5477;48.806;9.154;2022-12-18T09:18:44;25.20;;;15.17;;
10847;SDS011;5477;48.806;9.154;2022-12-18T09:21:12;23.80;;;14.57;;
10847;SDS011;5477;48.806;9.154;2022-12-18T09:23:42;24.70;;;14.23;;
10847;SDS011;5477;48.806;9.154;2022-12-18T09:26:11;24.17;;;14.90;;
10847;SDS011;5477;48.806;9.154;2022-12-18T09:28:39;28.87;;;16.87;;
10847;SDS011;5477;48.806;9.154;2022-12-18T09:31:10;27.03;;;14.13;;
10847;SDS011;5477;48.806;9.154;2022-12-18T09:33:42;25.03;;;13.77;;
10847;SDS011;5477;48.806;9.154;2022-12-18T09:36:11;27.17;;;14.90;;
10847;SDS011;5477;48.806;9.154;2022-12-18T09:38:41;24.03;;;15.60;;
10847;SDS011;5477;48.806;9.154;2022-12-18T09:41:15;26.90;;;14.83;;
10847;SDS011;5477;48.806;9.154;2022-12-18T09:43:51;27.87;;;15.43;;
10847;SDS011;5477;48.806;9.154;2022-12-18T09:46:26;24.90;;;13.83;;
10847;SDS011;5477;48.806;9.154;2022-12-18T09:48:58;28.10;;;15.43;;
10847;SDS011;5477;48.806;9.154;2022-12-18T09:51:32;26.23;;;14.43;;
10847;SDS011;5477;48.806;9.154;2022-12-18T09:54:05;26.57;;;15.37;;
10847;SDS011;5477;48.806;9.154;2022-12-18T09:56:38;26.27;;;14.83;;
10847;SDS011;5477;48.806;9.154;2022-12-18T09:59:14;21.60;;;13.43;;
10847;SDS011;5477;48.806;9.154;2022-12-18T10:01:48;25.67;;;15.33;;
10847;SDS011;5477;48.806;9.154;2022-12-18T10:04:17;28.37;;;15.17;;
10847;SDS011;5477;48.806;9.154;2022-12-18T10:06:47;24.03;;;14.17;;
10847;SDS011;5477;48.806;9.154;2022-12-18T10:09:23;22.00;;;13.80;;
10847;SDS011;5477;48.806;9.154;2022-12-18T10:11:58;28.30;;;15.43;;
10847;SDS011;5477;48.806;9.154;2022-12-18T10:14:34;28.30;;;15.90;;
10847;SDS011;5477;48.806;9.154;2022-12-18T10:17:13;31.23;;;17.47;;
10847;SDS011;5477;48.806;9.154;2022-12-18T10:19:49;28.00;;;16.37;;
10847;SDS011;5477;48.806;9.154;2022-12-18T10:22:29;28.47;;;15.87;;
10847;SDS011;5477;48.806;9.154;2022-12-18T10:25:14;27.10;;;17.00;;
10847;SDS011;5477;48.806;9.154;2022-12-18T10:27:46;28.67;;;16.33;;
10847;SDS011;5477;48.806;9.154;2022-12-18T10:30:15;26.20;;;15.93;;
10847;SDS011;5477;48.806;9.154;2022-12-18T10:32:46;31.10;;;17.97;;
10847;SDS011;5477;48.806;9.154;2022-12-18T10:35:15;35.43;;;22.37;;
10847;SDS011;5477;48.806;9.154;2022-12-18T10:37:59;41.00;;;30.43;;
10847;SDS011;5477;48.806;9.154;2022-12-18T10:40:32;30.97;;;18.33;;
10847;SDS011;5477;48.806;9.154;2022-12-18T10:43:04;29.20;;;16.47;;
10847;SDS011;5477;48.806;9.154;2022-12-18T10:45:33;31.87;;;19.97;;
10847;SDS011;5477;48.806;9.154;2022-12-18T10:48:03;25.40;;;15.47;;
10847;SDS011;5477;48.806;9.154;2022-12-18T10:50:32;27.23;;;17.33;;
10847;SDS011;5477;48.806;9.154;2022-12-18T10:53:25;29.90;;;17.73;;
10847;SDS011;5477;48.806;9.154;2022-12-18T10:55:56;26.80;;;17.23;;
10847;SDS011;5477;48.806;9.154;2022-12-18T10:58:30;26.73;;;16.90;;
10847;SDS011;5477;48.806;9.154;2022-12-18T11:01:06;28.87;;;17.50;;
10847;SDS011;5477;48.806;9.154;2022-12-18T11:03:37;29.90;;;18.67;;
10847;SDS011;5477;48.806;9.154;2022-12-18T11:06:08;31.40;;;18.23;;
10847;SDS011;5477;48.806;9.154;2022-12-18T11:08:38;30.60;;;18.20;;
10847;SDS011;5477;48.806;9.154;2022-12-18T11:11:14;28.97;;;17.70;;
10847;SDS011;5477;48.806;9.154;2022-12-18T11:13:49;28.70;;;17.67;;
10847;SDS011;5477;48.806;9.154;2022-12-18T11:16:25;30.77;;;18.33;;
10847;SDS011;5477;48.806;9.154;2022-12-18T11:18:57;29.87;;;17.07;;
10847;SDS011;5477;48.806;9.154;2022-12-18T11:21:40;28.93;;;17.57;;
10847;SDS011;5477;48.806;9.154;2022-12-18T11:24:15;29.23;;;17.93;;
10847;SDS011;5477;48.806;9.154;2022-12-18T11:26:49;30.47;;;17.00;;
10847;SDS011;5477;48.806;9.154;2022-12-18T11:29:27;29.20;;;17.23;;
10847;SDS011;5477;48.806;9.154;2022-12-18T11:34:53;29.17;;;18.07;;
10847;SDS011;5477;48.806;9.154;2022-12-18T11:37:28;27.67;;;16.10;;
10847;SDS011;5477;48.806;9.154;2022-12-18T11:39:58;28.07;;;16.30;;
10847;SDS011;5477;48.806;9.154;2022-12-18T11:42:32;29.00;;;16.77;;
10847;SDS011;5477;48.806;9.154;2022-12-18T11:45:21;28.30;;;15.10;;
10847;SDS011;5477;48.806;9.154;2022-12-18T11:47:55;27.97;;;16.43;;
10847;SDS011;5477;48.806;9.154;2022-12-18T11:50:28;26.17;;;15.13;;
10847;SDS011;5477;48.806;9.154;2022-12-18T11:53:01;25.77;;;15.27;;
10847;SDS011;5477;48.806;9.154;2022-12-18T11:55:35;23.30;;;14.03;;
10847;SDS011;5477;48.806;9.154;2022-12-18T11:58:10;21.63;;;14.40;;
10847;SDS011;5477;48.806;9.154;2022-12-18T12:00:47;27.40;;;15.30;;
10847;SDS011;5477;48.806;9.154;2022-12-18T12:03:27;24.77;;;14.10;;
10847;SDS011;5477;48.806;9.154;2022-12-18T12:06:13;24.17;;;14.33;;
10847;SDS011;5477;48.806;9.154;2022-12-18T12:08:53;24.30;;;13.93;;
10847;SDS011;5477;48.806;9.154;2022-12-18T12:11:30;25.37;;;14.77;;
10847;SDS011;5477;48.806;9.154;2022-12-18T12:14:10;26.93;;;14.27;;
10847;SDS011;5477;48.806;9.154;2022-12-18T12:16:49;23.07;;;13.43;;
10847;SDS011;5477;48.806;9.154;2022-12-18T12:19:27;24.07;;;13.93;;
10847;SDS011;5477;48.806;9.154;2022-12-18T12:22:06;23.17;;;13.97;;
10847;SDS011;5477;48.806;9.154;2022-12-18T12:24:42;24.40;;;13.83;;
10847;SDS011;5477;48.806;9.154;2022-12-18T12:27:19;23.30;;;12.73;;
10847;SDS011;5477;48.806;9.154;2022-12-18T12:29:57;28.13;;;16.77;;
10847;SDS011;5477;48.806;9.154;2022-12-18T12:32:33;32.37;;;19.77;;
10847;SDS011;5477;48.806;9.154;2022-12-18T12:35:17;23.93;;;13.83;;
10847;SDS011;5477;48.806;9.154;2022-12-18T12:38:01;27.70;;;14.40;;
10847;SDS011;5477;48.806;9.154;2022-12-18T12:40:34;23.93;;;12.57;;
10847;SDS011;5477;48.806;9.154;2022-12-18T12:43:27;25.80;;;14.27;;
10847;SDS011;5477;48.806;9.154;2022-12-18T12:46:03;24.57;;;13.53;;
10847;SDS011;5477;48.806;9.154;2022-12-18T12:48:35;22.97;;;13.30;;
10847;SDS011;5477;48.806;9.154;2022-12-18T12:51:11;28.40;;;13.60;;
10847;SDS011;5477;48.806;9.154;2022-12-18T12:53:44;23.50;;;13.67;;
10847;SDS011;5477;48.806;9.154;2022-12-18T12:56:14;24.37;;;13.63;;
10847;SDS011;5477;48.806;9.154;2022-12-18T12:58:50;25.90;;;13.77;;
10847;SDS011;5477;48.806;9.154;2022-12-18T13:01:28;25.37;;;14.53;;
10847;SDS011;5477;48.806;9.154;2022-12-18T13:04:03;25.23;;;14.27;;
10847;SDS011;5477;48.806;9.154;2022-12-18T13:06:45;22.03;;;13.50;;
10847;SDS011;5477;48.806;9.154;2022-12-18T13:09:20;23.00;;;13.73;;
10847;SDS011;5477;48.806;9.154;2022-12-18T13:11:48;25.60;;;14.47;;
10847;SDS011;5477;48.806;9.154;2022-12-18T13:14:35;24.43;;;14.07;;
10847;SDS011;5477;48.806;9.154;2022-12-18T13:17:24;27.83;;;14.33;;
10847;SDS011;5477;48.806;9.154;2022-12-18T13:20:03;29.23;;;15.47;;
10847;SDS011;5477;48.806;9.154;2022-12-18T13:22:38;24.00;;;13.30;;
10847;SDS011;5477;48.806;9.154;2022-12-18T13:28:03;24.60;;;14.20;;
10847;SDS011;5477;48.806;9.154;2022-12-18T13:30:45;24.40;;;13.77;;
10847;SDS011;5477;48.806;9.154;2022-12-18T13:36:35;24.43;;;14.63;;
10847;SDS011;5477;48.806;9.154;2022-12-18T13:39:11;25.27;;;14.00;;
10847;SDS011;5477;48.806;9.154;2022-12-18T13:48:16;25.90;;;14.27;;
10847;SDS011;5477;48.806;9.154;2022-12-18T13:50:55;25.43;;;13.83;;
10847;SDS011;5477;48.806;9.154;2022-12-18T13:53:28;25.80;;;15.00;;
10847;SDS011;5477;48.806;9.154;2022-12-18T13:55:59;23.13;;;13.83;;
10847;SDS011;5477;48.806;9.154;2022-12-18T13:58:27;26.27;;;14.53;;
10847;SDS011;5477;48.806;9.154;2022-12-18T14:00:56;25.30;;;14.63;;
10847;SDS011;5477;48.806;9.154;2022-12-18T14:03:26;26.03;;;14.80;;
10847;SDS011;5477;48.806;9.154;2022-12-18T14:05:59;27.47;;;14.37;;
10847;SDS011;5477;48.806;9.154;2022-12-18T14:08:37;26.10;;;14.60;;
10847;SDS011;5477;48.806;9.154;2022-12-18T14:11:07;27.17;;;15.07;;
10847;SDS011;5477;48.806;9.154;2022-12-18T14:13:52;26.73;;;14.87;;
10847;SDS011;5477;48.806;9.154;2022-12-18T14:16:21;24.77;;;14.30;;
10847;SDS011;5477;48.806;9.154;2022-12-18T14:18:51;27.10;;;14.93;;
10847;SDS011;5477;48.806;9.154;2022-12-18T14:21:33;24.73;;;15.23;;
10847;SDS011;5477;48.806;9.154;2022-12-18T14:24:06;29.23;;;15.30;;
10847;SDS011;5477;48.806;9.154;2022-12-18T14:26:45;26.10;;;14.43;;
10847;SDS011;5477;48.806;9.154;2022-12-18T14:29:23;28.37;;;15.53;;
10847;SDS011;5477;48.806;9.154;2022-12-18T14:32:06;29.40;;;16.60;;
10847;SDS011;5477;48.806;9.154;2022-12-18T14:34:43;26.20;;;14.77;;
10847;SDS011;5477;48.806;9.154;2022-12-18T14:37:12;29.00;;;16.37;;
10847;SDS011;5477;48.806;9.154;2022-12-18T14:39:51;30.17;;;16.00;;
10847;SDS011;5477;48.806;9.154;2022-12-18T14:42:20;29.43;;;16.50;;
10847;SDS011;5477;48.806;9.154;2022-12-18T14:44:48;27.73;;;15.37;;
10847;SDS011;5477;48.806;9.154;2022-12-18T14:47:38;26.97;;;15.33;;
10847;SDS011;5477;48.806;9.154;2022-12-18T14:50:11;32.83;;;17.00;;
10847;SDS011;5477;48.806;9.154;2022-12-18T14:52:40;27.60;;;15.33;;
10847;SDS011;5477;48.806;9.154;2022-12-18T14:55:14;28.27;;;15.43;;
10847;SDS011;5477;48.806;9.154;2022-12-18T14:57:42;30.27;;;16.73;;
10847;SDS011;5477;48.806;9.154;2022-12-18T15:00:14;28.83;;;16.53;;
10847;SDS011;5477;48.806;9.154;2022-12-18T15:02:46;32.77;;;16.77;;
10847;SDS011;5477;48.806;9.154;2022-12-18T15:05:18;29.23;;;16.07;;
10847;SDS011;5477;48.806;9.154;2022-12-18T15:07:48;29.93;;;16.43;;
10847;SDS011;5477;48.806;9.154;2022-12-18T15:10:18;27.83;;;16.97;;
10847;SDS011;5477;48.806;9.154;2022-12-18T15:12:48;28.40;;;16.70;;
10847;SDS011;5477;48.806;9.154;2022-12-18T15:18:16;34.20;;;18.17;;
10847;SDS011;5477;48.806;9.154;2022-12-18T15:20:48;29.83;;;17.03;;
10847;SDS011;5477;48.806;9.154;2022-12-18T15:23:18;33.53;;;16.77;;
10847;SDS011;5477;48.806;9.154;2022-12-18T15:25:49;33.03;;;17.87;;
10847;SDS011;5477;48.806;9.154;2022-12-18T15:28:26;31.70;;;17.00;;
10847;SDS011;5477;48.806;9.154;2022-12-18T15:30:59;31.40;;;16.53;;